createdAt,value
2019-05-03T00:01:56.698Z,33.13
2019-05-03T00:04:28.689Z,29.57
2019-05-03T00:07:03.783Z,35.60
2019-05-03T00:09:36.316Z,31.37
2019-05-03T00:12:12.509Z,32.90
2019-05-03T00:14:45.339Z,31.83
2019-05-03T00:17:17.351Z,35.00
2019-05-03T00:19:48.433Z,33.27
2019-05-03T00:22:19.343Z,37.93
2019-05-03T00:25:04.632Z,32.93
2019-05-03T00:27:22.833Z,34.43
2019-05-03T00:29:53.583Z,36.83
2019-05-03T00:32:26.143Z,32.20
2019-05-03T00:34:58.863Z,34.17
2019-05-03T00:37:32.731Z,33.87
2019-05-03T00:40:06.851Z,34.20
2019-05-03T00:42:38.144Z,38.73
2019-05-03T00:45:12.596Z,35.93
2019-05-03T00:47:43.283Z,36.30
2019-05-03T00:50:14.843Z,35.20
2019-05-03T00:52:45.737Z,35.90
2019-05-03T00:55:19.259Z,33.63
2019-05-03T00:57:49.761Z,38.47
2019-05-03T01:00:21.761Z,34.80
2019-05-03T01:02:53.262Z,36.53
2019-05-03T01:05:24.497Z,36.37
2019-05-03T01:07:56.301Z,32.87
2019-05-03T01:10:27.276Z,36.80
2019-05-03T01:12:58.997Z,33.23
2019-05-03T01:15:46.456Z,35.20
2019-05-03T01:18:21.773Z,36.10
2019-05-03T01:20:53.243Z,36.03
2019-05-03T01:23:24.764Z,43.90
2019-05-03T01:25:56.223Z,42.43
2019-05-03T01:28:27.203Z,41.90
2019-05-03T01:30:59.103Z,43.80
2019-05-03T01:33:32.001Z,47.40
2019-05-03T01:36:02.866Z,44.77
2019-05-03T01:38:34.579Z,39.17
2019-05-03T01:41:05.309Z,44.30
2019-05-03T01:43:36.463Z,45.80
2019-05-03T01:46:07.028Z,48.73
2019-05-03T01:48:52.989Z,46.53
2019-05-03T01:51:43.257Z,49.03
2019-05-03T01:54:14.589Z,49.43
2019-05-03T01:56:56.861Z,52.00
2019-05-03T01:59:19.157Z,51.67
2019-05-03T02:02:09.858Z,51.20
2019-05-03T02:04:45.369Z,49.10
2019-05-03T02:07:16.493Z,47.87
2019-05-03T02:09:48.241Z,46.43
2019-05-03T02:12:22.054Z,48.87
2019-05-03T02:14:53.348Z,45.33
2019-05-03T02:17:25.119Z,47.77
2019-05-03T02:19:56.457Z,47.40
2019-05-03T02:22:27.306Z,47.47
2019-05-03T02:24:58.642Z,43.67
2019-05-03T02:27:29.986Z,47.40
2019-05-03T02:30:02.972Z,56.77
2019-05-03T02:32:34.316Z,44.80
2019-05-03T02:35:07.429Z,47.17
2019-05-03T02:37:40.284Z,50.13
2019-05-03T02:40:13.029Z,42.33
2019-05-03T02:42:46.976Z,41.80
2019-05-03T02:45:25.854Z,45.73
2019-05-03T02:48:05.979Z,43.90
2019-05-03T02:50:37.606Z,44.67
2019-05-03T02:53:09.137Z,39.70
2019-05-03T02:55:39.814Z,43.90
2019-05-03T02:58:10.444Z,50.57
2019-05-03T03:01:02.174Z,51.70
2019-05-03T03:03:36.251Z,46.50
2019-05-03T03:06:08.203Z,46.33
2019-05-03T03:08:41.170Z,43.87
2019-05-03T03:11:15.405Z,47.73
2019-05-03T03:13:48.007Z,45.87
2019-05-03T03:16:20.838Z,48.57
2019-05-03T03:18:55.958Z,44.27
2019-05-03T03:21:36.113Z,46.37
2019-05-03T03:24:18.458Z,45.00
2019-05-03T03:26:52.069Z,47.00
2019-05-03T03:29:27.483Z,44.83
2019-05-03T03:32:20.950Z,43.53
2019-05-03T03:35:20.778Z,41.67
2019-05-03T03:37:49.260Z,45.30
2019-05-03T03:40:21.235Z,43.13
2019-05-03T03:42:55.694Z,39.13
2019-05-03T03:45:26.172Z,42.03
2019-05-03T03:47:58.286Z,39.00
2019-05-03T03:50:32.420Z,36.20
2019-05-03T03:53:06.863Z,36.83
2019-05-03T03:55:40.497Z,38.17
2019-05-03T03:58:15.980Z,36.93
2019-05-03T04:00:46.449Z,34.33
2019-05-03T04:03:18.088Z,37.73
2019-05-03T04:05:49.571Z,36.40
2019-05-03T04:08:20.598Z,33.77
2019-05-03T04:10:52.173Z,33.20
2019-05-03T04:13:25.524Z,39.27
2019-05-03T04:16:07.754Z,34.43
2019-05-03T04:18:58.182Z,34.10
2019-05-03T04:21:29.918Z,38.17
2019-05-03T04:24:01.582Z,33.77
2019-05-03T04:26:32.727Z,37.03
2019-05-03T04:29:05.498Z,35.20
2019-05-03T04:31:37.254Z,36.63
2019-05-03T04:34:08.864Z,32.93
2019-05-03T04:36:40.419Z,36.63
2019-05-03T04:39:17.050Z,37.53
2019-05-03T04:41:45.465Z,36.00
2019-05-03T04:44:16.167Z,33.87
2019-05-03T04:46:46.938Z,31.70
2019-05-03T04:49:18.374Z,36.23
2019-05-03T04:51:49.462Z,34.20
2019-05-03T04:54:25.825Z,30.27
2019-05-03T04:56:57.539Z,32.93
2019-05-03T04:59:29.074Z,31.23
2019-05-03T05:01:59.710Z,27.43
2019-05-03T05:04:30.236Z,26.77
2019-05-03T05:07:01.999Z,29.60
2019-05-03T05:09:34.956Z,25.10
2019-05-03T05:12:06.545Z,22.27
2019-05-03T05:14:40.514Z,23.57
2019-05-03T05:17:12.881Z,17.83
2019-05-03T05:20:05.574Z,17.47
2019-05-03T05:22:37.015Z,16.43
2019-05-03T05:25:12.191Z,16.33
2019-05-03T05:28:01.501Z,15.37
2019-05-03T05:30:35.176Z,13.13
2019-05-03T05:33:08.006Z,10.90
2019-05-03T05:35:38.643Z,11.20
2019-05-03T05:38:09.974Z,9.73
2019-05-03T05:40:41.458Z,9.40
2019-05-03T05:43:12.670Z,8.60
2019-05-03T05:45:44.909Z,7.40
2019-05-03T05:48:20.548Z,6.30
2019-05-03T05:50:52.258Z,8.70
2019-05-03T05:53:25.408Z,7.50
2019-05-03T05:56:15.758Z,6.87
2019-05-03T05:58:55.366Z,7.70
2019-05-03T06:01:30.188Z,4.50
2019-05-03T06:04:00.864Z,7.27
2019-05-03T06:06:50.494Z,3.57
2019-05-03T06:09:36.467Z,4.87
2019-05-03T06:12:15.218Z,5.23
2019-05-03T06:14:50.655Z,3.93
2019-05-03T06:17:34.721Z,6.10
2019-05-03T06:20:15.678Z,3.10
2019-05-03T06:22:56.431Z,3.27
2019-05-03T06:25:37.162Z,2.90
2019-05-03T06:31:00.327Z,4.07
2019-05-03T06:33:32.140Z,4.50
2019-05-03T06:36:04.972Z,3.33
2019-05-03T06:38:38.744Z,3.93
2019-05-03T06:41:09.598Z,1.93
2019-05-03T06:43:45.106Z,4.13
2019-05-03T06:46:15.803Z,6.80
2019-05-03T06:48:45.494Z,4.17
2019-05-03T06:51:20.030Z,3.13
2019-05-03T06:53:50.659Z,5.30
2019-05-03T06:56:25.025Z,5.40
2019-05-03T06:58:58.720Z,5.97
2019-05-03T07:01:42.117Z,3.97
2019-05-03T07:04:32.468Z,4.63
2019-05-03T07:07:17.988Z,5.87
2019-05-03T07:09:56.838Z,5.90
2019-05-03T07:12:29.848Z,6.10
2019-05-03T07:15:02.746Z,6.70
2019-05-03T07:17:37.257Z,4.27
2019-05-03T07:20:10.966Z,6.73
2019-05-03T07:22:44.469Z,4.97
2019-05-03T07:25:16.835Z,7.03
2019-05-03T07:27:50.201Z,11.23
2019-05-03T07:30:21.986Z,10.40
2019-05-03T07:32:59.027Z,10.00
2019-05-03T07:35:32.778Z,12.53
2019-05-03T07:38:05.444Z,12.83
2019-05-03T07:40:36.225Z,8.47
2019-05-03T07:43:07.258Z,9.90
2019-05-03T07:45:40.688Z,6.57
2019-05-03T07:48:12.123Z,7.00
2019-05-03T07:50:44.750Z,7.37
2019-05-03T07:53:15.597Z,7.90
2019-05-03T07:56:05.332Z,8.33
2019-05-03T07:58:37.879Z,6.97
2019-05-03T08:01:15.015Z,7.33
2019-05-03T08:03:46.359Z,7.23
2019-05-03T08:06:17.437Z,10.93
2019-05-03T08:08:48.623Z,5.17
2019-05-03T08:11:20.363Z,5.53
2019-05-03T08:13:51.883Z,7.13
2019-05-03T08:16:25.073Z,5.37
2019-05-03T08:18:56.027Z,7.23
2019-05-03T08:21:38.775Z,8.97
2019-05-03T08:24:08.659Z,15.47
2019-05-03T08:26:39.583Z,5.70
2019-05-03T08:32:10.984Z,6.30
2019-05-03T08:34:47.553Z,6.30
2019-05-03T08:37:28.399Z,8.27
2019-05-03T08:39:59.355Z,4.57
2019-05-03T08:42:30.423Z,7.43
2019-05-03T08:45:01.366Z,6.30
2019-05-03T08:47:34.390Z,6.23
2019-05-03T08:50:06.404Z,5.03
2019-05-03T08:52:37.226Z,6.53
2019-05-03T08:55:08.993Z,9.63
2019-05-03T08:57:39.964Z,13.10
2019-05-03T09:00:15.918Z,6.17
2019-05-03T09:02:47.443Z,6.40
2019-05-03T09:05:19.320Z,6.83
2019-05-03T09:07:50.849Z,7.60
2019-05-03T09:10:27.474Z,5.17
2019-05-03T09:13:10.485Z,8.57
2019-05-03T09:15:42.078Z,7.80
2019-05-03T09:18:16.756Z,4.93
2019-05-03T09:20:45.823Z,7.63
2019-05-03T09:23:17.404Z,7.67
2019-05-03T09:25:48.296Z,6.47
2019-05-03T09:28:19.354Z,6.70
2019-05-03T09:30:50.437Z,9.53
2019-05-03T09:33:21.464Z,6.13
2019-05-03T09:35:52.372Z,4.97
2019-05-03T09:38:25.497Z,5.97
2019-05-03T09:41:00.234Z,11.53
2019-05-03T09:43:32.331Z,9.20
2019-05-03T09:46:05.019Z,14.40
2019-05-03T09:48:36.059Z,5.67
2019-05-03T09:51:08.196Z,8.43
2019-05-03T09:53:49.229Z,8.23
2019-05-03T09:56:46.026Z,10.67
2019-05-03T09:59:12.161Z,7.23
2019-05-03T10:01:45.451Z,11.47
2019-05-03T10:04:17.984Z,6.43
2019-05-03T10:06:48.863Z,5.83
2019-05-03T10:09:20.033Z,11.20
2019-05-03T10:11:51.732Z,10.97
2019-05-03T10:14:22.843Z,3.17
2019-05-03T10:17:08.898Z,6.37
2019-05-03T10:19:40.453Z,6.47
2019-05-03T10:22:11.453Z,7.73
2019-05-03T10:24:42.366Z,6.67
2019-05-03T10:27:15.113Z,5.17
2019-05-03T10:29:45.679Z,9.77
2019-05-03T10:32:27.313Z,7.43
2019-05-03T10:35:02.186Z,6.47
2019-05-03T10:37:35.867Z,9.63
2019-05-03T10:40:08.284Z,9.40
2019-05-03T10:42:39.193Z,5.37
2019-05-03T10:45:10.464Z,5.27
2019-05-03T10:47:41.443Z,5.20
2019-05-03T10:50:12.410Z,7.77
2019-05-03T10:55:21.816Z,5.57
2019-05-03T10:58:09.952Z,11.27
2019-05-03T11:00:49.611Z,9.83
2019-05-03T11:03:16.208Z,8.10
2019-05-03T11:05:47.170Z,9.33
2019-05-03T11:08:19.086Z,13.33
2019-05-03T11:10:50.281Z,10.33
2019-05-03T11:13:21.197Z,7.37
2019-05-03T11:15:52.222Z,8.70
2019-05-03T11:18:25.230Z,4.60
2019-05-03T11:20:56.633Z,2.90
2019-05-03T11:23:27.648Z,6.53
2019-05-03T11:25:59.517Z,7.50
2019-05-03T11:28:31.207Z,19.80
2019-05-03T11:31:24.826Z,7.77
2019-05-03T11:33:59.719Z,4.97
2019-05-03T11:36:42.331Z,10.43
2019-05-03T11:39:14.476Z,9.70
2019-05-03T11:41:48.648Z,10.13
2019-05-03T11:44:38.168Z,9.93
2019-05-03T11:47:09.766Z,11.50
2019-05-03T11:49:40.658Z,6.73
2019-05-03T11:52:12.488Z,7.83
2019-05-03T11:54:45.263Z,6.93
2019-05-03T11:57:26.785Z,18.13
2019-05-03T11:59:58.780Z,16.20
2019-05-03T12:02:49.786Z,8.20
2019-05-03T12:05:25.020Z,6.43
2019-05-03T12:07:56.813Z,7.83
2019-05-03T12:10:48.459Z,3.67
2019-05-03T12:13:08.890Z,35.73
2019-05-03T12:15:39.732Z,25.03
2019-05-03T12:18:11.362Z,21.87
2019-05-03T12:20:44.289Z,13.57
2019-05-03T12:23:16.814Z,8.77
2019-05-03T12:25:49.682Z,8.63
2019-05-03T12:28:20.855Z,16.63
2019-05-03T12:30:51.489Z,17.07
2019-05-03T12:33:25.821Z,11.20
2019-05-03T12:35:56.279Z,9.13
2019-05-03T12:38:27.482Z,9.83
2019-05-03T12:40:58.554Z,9.53
2019-05-03T12:43:29.230Z,9.37
2019-05-03T12:46:00.762Z,11.73
2019-05-03T12:48:31.471Z,6.03
2019-05-03T12:51:02.568Z,10.97
2019-05-03T12:53:35.353Z,12.43
2019-05-03T12:56:11.164Z,8.43
2019-05-03T12:58:58.141Z,6.37
2019-05-03T13:01:48.084Z,9.20
2019-05-03T13:04:24.954Z,11.27
2019-05-03T13:07:05.325Z,10.70
2019-05-03T13:09:35.808Z,6.73
2019-05-03T13:12:09.569Z,10.23
2019-05-03T13:14:40.130Z,8.97
2019-05-03T13:17:16.223Z,8.20
2019-05-03T13:19:46.909Z,6.47
2019-05-03T13:22:18.479Z,9.43
2019-05-03T13:27:39.486Z,6.23
2019-05-03T13:30:15.786Z,6.87
2019-05-03T13:32:46.659Z,9.10
2019-05-03T13:35:17.633Z,5.50
2019-05-03T13:37:49.723Z,10.30
2019-05-03T13:40:20.795Z,7.30
2019-05-03T13:43:01.715Z,7.80
2019-05-03T13:45:26.694Z,9.27
2019-05-03T13:47:58.092Z,9.20
2019-05-03T13:50:31.491Z,7.87
2019-05-03T13:53:04.849Z,12.37
2019-05-03T13:55:35.858Z,11.13
2019-05-03T13:58:07.106Z,23.90
2019-05-03T14:00:38.102Z,15.03
2019-05-03T14:03:12.426Z,13.57
2019-05-03T14:05:44.591Z,7.63
2019-05-03T14:08:20.122Z,9.37
2019-05-03T14:10:55.983Z,11.17
2019-05-03T14:13:35.983Z,9.67
2019-05-03T14:16:08.641Z,6.37
2019-05-03T14:18:41.405Z,7.33
2019-05-03T14:21:20.704Z,7.87
2019-05-03T14:24:15.629Z,6.37
2019-05-03T14:26:46.387Z,6.03
2019-05-03T14:29:18.524Z,6.30
2019-05-03T14:31:50.800Z,3.53
2019-05-03T14:34:21.557Z,7.20
2019-05-03T14:36:55.470Z,9.27
2019-05-03T14:39:27.218Z,7.13
2019-05-03T14:42:01.410Z,6.27
2019-05-03T14:44:32.292Z,5.07
2019-05-03T14:47:05.737Z,5.87
2019-05-03T14:49:39.026Z,6.23
2019-05-03T14:52:09.836Z,7.50
2019-05-03T14:54:42.777Z,8.57
2019-05-03T14:57:34.990Z,9.70
2019-05-03T15:00:27.276Z,6.80
2019-05-03T15:03:07.647Z,3.83
2019-05-03T15:05:46.076Z,8.17
2019-05-03T15:08:17.764Z,10.70
2019-05-03T15:10:48.893Z,7.57
2019-05-03T15:13:20.281Z,6.00
2019-05-03T15:15:50.924Z,5.97
2019-05-03T15:18:21.740Z,6.70
2019-05-03T15:20:52.183Z,5.13
2019-05-03T15:23:25.455Z,9.63
2019-05-03T15:25:55.971Z,7.73
2019-05-03T15:28:27.628Z,11.80
2019-05-03T15:30:59.522Z,10.83
2019-05-03T15:33:30.171Z,6.20
2019-05-03T15:36:06.785Z,7.97
2019-05-03T15:38:38.676Z,12.93
2019-05-03T15:41:10.486Z,9.97
2019-05-03T15:43:54.755Z,9.00
2019-05-03T15:46:45.142Z,7.03
2019-05-03T15:49:19.256Z,10.07
2019-05-03T15:51:50.711Z,8.47
2019-05-03T15:54:24.578Z,7.93
2019-05-03T15:56:56.784Z,8.23
2019-05-03T15:59:27.643Z,11.07
2019-05-03T16:01:58.331Z,17.00
2019-05-03T16:04:32.575Z,15.57
2019-05-03T16:07:06.159Z,10.97
2019-05-03T16:09:39.925Z,10.03
2019-05-03T16:12:11.723Z,10.80
2019-05-03T16:14:44.571Z,8.87
2019-05-03T16:17:17.475Z,11.10
2019-05-03T16:19:53.051Z,11.23
2019-05-03T16:22:25.047Z,7.67
2019-05-03T16:24:59.511Z,8.00
2019-05-03T16:27:52.551Z,13.47
2019-05-03T16:30:32.253Z,9.17
2019-05-03T16:33:04.718Z,10.97
2019-05-03T16:35:37.776Z,11.27
2019-05-03T16:38:07.923Z,12.27
2019-05-03T16:40:38.738Z,9.37
2019-05-03T16:43:10.936Z,17.17
2019-05-03T16:45:44.452Z,16.43
2019-05-03T16:48:18.151Z,14.27
2019-05-03T16:50:53.323Z,15.90
2019-05-03T16:53:27.289Z,10.40
2019-05-03T16:55:58.198Z,14.97
2019-05-03T16:58:30.773Z,21.63
2019-05-03T17:01:05.855Z,8.57
2019-05-03T17:03:47.337Z,13.53
2019-05-03T17:06:26.855Z,10.80
2019-05-03T17:09:19.640Z,23.13
2019-05-03T17:12:14.964Z,19.90
2019-05-03T17:14:49.568Z,14.87
2019-05-03T17:17:45.111Z,12.60
2019-05-03T17:20:21.392Z,14.80
2019-05-03T17:22:55.396Z,19.67
2019-05-03T17:25:26.587Z,9.67
2019-05-03T17:28:00.116Z,9.03
2019-05-03T17:30:37.317Z,13.10
2019-05-03T17:33:10.284Z,12.77
2019-05-03T17:35:45.317Z,7.67
2019-05-03T17:38:19.891Z,6.93
2019-05-03T17:41:09.860Z,14.23
2019-05-03T17:43:51.465Z,8.80
2019-05-03T17:46:28.640Z,8.43
2019-05-03T17:49:05.417Z,20.40
2019-05-03T17:51:46.297Z,13.43
2019-05-03T17:54:42.260Z,9.33
2019-05-03T17:57:24.363Z,14.17
2019-05-03T18:00:10.437Z,16.57
2019-05-03T18:02:46.997Z,19.03
2019-05-03T18:05:39.348Z,18.30
2019-05-03T18:08:26.188Z,9.90
2019-05-03T18:11:08.425Z,15.63
2019-05-03T18:13:40.244Z,16.70
2019-05-03T18:16:11.599Z,16.60
2019-05-03T18:18:42.648Z,19.13
2019-05-03T18:21:20.928Z,23.23
2019-05-03T18:24:01.209Z,21.13
2019-05-03T18:26:35.494Z,18.83
2019-05-03T18:29:07.035Z,22.00
2019-05-03T18:31:39.611Z,20.50
2019-05-03T18:34:21.557Z,33.13
2019-05-03T18:36:50.551Z,26.97
2019-05-03T18:39:25.246Z,27.80
2019-05-03T18:41:56.602Z,42.00
2019-05-03T18:44:55.110Z,31.07
2019-05-03T18:47:26.578Z,29.50
2019-05-03T18:50:00.913Z,31.27
2019-05-03T18:52:37.258Z,23.90
2019-05-03T18:55:09.509Z,17.80
2019-05-03T18:57:42.243Z,17.17
2019-05-03T19:00:15.323Z,19.80
2019-05-03T19:02:48.639Z,26.23
2019-05-03T19:05:27.901Z,31.10
2019-05-03T19:08:21.695Z,29.57
2019-05-03T19:11:08.624Z,29.83
2019-05-03T19:13:48.286Z,30.73
2019-05-03T19:16:45.557Z,25.80
2019-05-03T19:19:24.652Z,23.47
2019-05-03T19:21:56.100Z,27.37
2019-05-03T19:24:30.977Z,30.70
2019-05-03T19:27:17.282Z,24.07
2019-05-03T19:29:55.473Z,27.77
2019-05-03T19:32:28.362Z,29.13
2019-05-03T19:35:00.129Z,34.80
2019-05-03T19:37:35.590Z,34.07
2019-05-03T19:40:23.209Z,33.00
2019-05-03T19:42:55.759Z,21.83
2019-05-03T19:45:31.123Z,32.77
2019-05-03T19:48:06.226Z,32.50
2019-05-03T19:50:41.911Z,33.35
2019-05-03T19:53:37.843Z,37.17
2019-05-03T19:56:11.767Z,41.47
2019-05-03T19:58:46.772Z,64.27
2019-05-03T20:01:43.202Z,65.17
2019-05-03T20:04:34.389Z,79.33
2019-05-03T20:07:20.738Z,140.90
2019-05-03T20:09:54.386Z,138.83
2019-05-03T20:12:38.118Z,91.57
2019-05-03T20:15:14.735Z,75.53
2019-05-03T20:17:56.673Z,60.47
2019-05-03T20:20:20.172Z,57.13
2019-05-03T20:22:59.079Z,43.57
2019-05-03T20:25:35.566Z,54.07
2019-05-03T20:28:11.028Z,48.17
2019-05-03T20:30:45.285Z,32.97
2019-05-03T20:33:24.208Z,27.90
2019-05-03T20:35:56.283Z,32.40
2019-05-03T20:38:27.311Z,37.67
2019-05-03T20:41:02.281Z,34.23
2019-05-03T20:43:54.920Z,60.97
2019-05-03T20:46:39.328Z,110.20
2019-05-03T20:49:17.791Z,93.40
2019-05-03T20:51:54.417Z,87.70
2019-05-03T20:54:27.279Z,84.43
2019-05-03T20:57:08.461Z,64.93
2019-05-03T20:59:45.325Z,50.37
2019-05-03T21:02:15.321Z,42.07
2019-05-03T21:04:51.731Z,35.60
2019-05-03T21:07:26.313Z,37.57
2019-05-03T21:09:57.320Z,36.50
2019-05-03T21:12:31.528Z,39.57
2019-05-03T21:15:05.357Z,27.80
2019-05-03T21:17:45.060Z,29.57
2019-05-03T21:20:36.224Z,35.20
2019-05-03T21:23:09.479Z,34.60
2019-05-03T21:26:03.632Z,22.60
2019-05-03T21:28:18.978Z,18.03
2019-05-03T21:30:50.971Z,37.57
2019-05-03T21:33:23.232Z,29.60
2019-05-03T21:35:55.663Z,24.57
2019-05-03T21:38:26.459Z,22.17
2019-05-03T21:40:57.681Z,26.57
2019-05-03T21:43:29.148Z,35.07
2019-05-03T21:46:08.746Z,31.93
2019-05-03T21:48:58.491Z,27.30
2019-05-03T21:51:29.862Z,29.40
2019-05-03T21:54:01.092Z,34.00
2019-05-03T21:56:32.544Z,34.63
2019-05-03T21:59:05.384Z,25.30
2019-05-03T22:01:39.129Z,26.90
2019-05-03T22:04:10.991Z,17.97
2019-05-03T22:06:45.505Z,22.97
2019-05-03T22:09:17.173Z,25.37
2019-05-03T22:11:47.769Z,18.53
2019-05-03T22:14:25.426Z,21.00
2019-05-03T22:17:15.091Z,19.30
2019-05-03T22:19:48.371Z,16.53
2019-05-03T22:22:38.422Z,20.40
2019-05-03T22:25:10.197Z,23.17
2019-05-03T22:27:43.030Z,20.57
2019-05-03T22:30:15.302Z,24.43
2019-05-03T22:32:46.072Z,20.57
2019-05-03T22:35:17.683Z,22.87
2019-05-03T22:37:49.647Z,19.40
2019-05-03T22:40:20.882Z,24.90
2019-05-03T22:42:51.829Z,24.03
2019-05-03T22:45:22.417Z,22.03
2019-05-03T22:47:54.985Z,29.27
2019-05-03T22:50:25.800Z,36.20
2019-05-03T22:52:57.005Z,31.23
2019-05-03T22:55:28.495Z,35.17
2019-05-03T22:58:00.072Z,35.23
2019-05-03T23:00:31.826Z,34.00
2019-05-03T23:03:03.572Z,33.20
2019-05-03T23:05:37.314Z,34.23
2019-05-03T23:08:08.775Z,33.37
2019-05-03T23:10:39.734Z,32.43
2019-05-03T23:13:11.289Z,23.63
2019-05-03T23:15:42.891Z,19.90
2019-05-03T23:18:14.272Z,21.43
2019-05-03T23:20:52.779Z,21.37
2019-05-03T23:23:43.070Z,19.17
2019-05-03T23:26:14.824Z,15.00
2019-05-03T23:28:47.505Z,20.27
2019-05-03T23:31:18.851Z,28.90
2019-05-03T23:33:50.428Z,30.13
2019-05-03T23:36:32.852Z,27.70
2019-05-03T23:38:54.778Z,27.20
2019-05-03T23:41:25.741Z,21.67
2019-05-03T23:43:56.860Z,28.07
2019-05-03T23:46:34.800Z,19.17
2019-05-03T23:49:06.707Z,23.00
2019-05-03T23:51:56.290Z,22.43
2019-05-03T23:54:28.424Z,25.27
2019-05-03T23:56:59.349Z,34.83
2019-05-03T23:59:30.689Z,24.33
